Au Sable, Michigan
Current Conditions -  °F | °C
As of 12:13 PM on Sunday 23 Nov 2014 (Local Time) from KOSC Reporting Station
Broken Clouds Broken Clouds  
Wind Chill:   Ceiling: 900
Heat Index:   Visibility: 10mi
Dew Point:   Wind: 9mph
Humidity: 91%   Direction: 200°SSW
Pressure: 29.75"   Gusts: NA
Location:  44.4539°N, 83.4813°W
Report Text: KOSC 231713Z AUTO 20008KT 10SM BKN009 BKN031 08/07 A2975 RMK AO2 T00880074
Loading
Personal Weather Stations






























Interactive Weather Map New forecast layout! Learn more

10-Day Weather Forecast

Advertisements
Track Severe Weather on mobile